Time;durP1;ratioP1;P1;durP2;ratioP2;P2;SDS_P1;SDS_P2;PMS_P1;PMS_P2;Temp;Humidity;BMP_temperature;BMP_pressure;BME280_temperature;BME280_humidity;BME280_pressure;Samples;Min_cycle;Max_cycle;Signal;HPM_P1;HPM_P2
2023/02/09 00:01:53;;;;;;;;;;;;;;;;;;5062094;28;20035;-85
2023/02/09 00:04:19;;;;;;;;;;;;;;;;;;5090149;28;20688;-85
2023/02/09 00:06:45;;;;;;;;;;;;;;;;;;5074204;28;19920;-84
2023/02/09 00:09:17;;;;;;;;;;;;;;;;;;5072254;28;20287;-85
2023/02/09 00:14:28;;;;;;;;;;;;;;;;;;5088662;28;19981;-84
2023/02/09 00:16:53;;;;;;;;;;;;;;;;;;5070852;28;20379;-85
2023/02/09 00:19:19;;;;;;;;;;;;;;;;;;5040731;28;19920;-85
2023/02/09 00:21:45;;;;;;;;;;;;;;;;;;5073047;28;20469;-85
2023/02/09 00:24:11;;;;;;;;;;;;;;;;;;5054053;28;20379;-85
2023/02/09 00:26:37;;;;;;;;;;;;;;;;;;5070996;28;19921;-84
2023/02/09 00:29:03;;;;;;;;;;;;;;;;;;5073747;28;19921;-85
2023/02/09 00:31:29;;;;;;;;;;;;;;;;;;5060479;28;19928;-85
2023/02/09 00:33:55;;;;;;;;;;;;;;;;;;5069783;28;19921;-85
2023/02/09 00:36:21;;;;;;;;;;;;;;;;;;5076118;28;21498;-86
2023/02/09 00:38:47;;;;;;;;;;;;;;;;;;5068793;28;19921;-85
2023/02/09 00:41:13;;;;;;;;;;;;;;;;;;5039558;28;19924;-86
2023/02/09 00:43:39;;;;;;;;;;;;;;;;;;5038629;28;19932;-86
2023/02/09 00:46:05;;;;;;;;;;;;;;;;;;5035815;28;20351;-85
2023/02/09 00:48:31;;;;;;;;;;;;;;;;;;5062455;28;19982;-86
2023/02/09 00:50:57;;;;;;;;;;;;;;;;;;5070976;28;20029;-85
2023/02/09 00:53:23;;;;;;;;;;;;;;;;;;5070587;28;19920;-85
2023/02/09 00:55:48;;;;;;;;;;;;;;;;;;5067077;28;20796;-85
2023/02/09 00:58:14;;;;;;;;;;;;;;;;;;5069008;28;20341;-85
2023/02/09 01:00:40;;;;;;;;;;;;;;;;;;5065803;28;20290;-85
2023/02/09 01:03:06;;;;;;;;;;;;;;;;;;5067468;28;19932;-85
2023/02/09 01:05:32;;;;;;;;;;;;;;;;;;5037084;28;19931;-85
2023/02/09 01:07:58;;;;;;;;;;;;;;;;;;5070198;28;19920;-84
2023/02/09 01:10:24;;;;;;;;;;;;;;;;;;5051121;28;20418;-84
2023/02/09 01:12:50;;;;;;;;;;;;;;;;;;5087225;28;19928;-84
2023/02/09 01:15:16;;;;;;;;;;;;;;;;;;5035569;28;19924;-84
2023/02/09 01:17:42;;;;;;;;;;;;;;;;;;5054557;28;20349;-84
2023/02/09 01:20:08;;;;;;;;;;;;;;;;;;5064892;28;20036;-85
2023/02/09 01:22:34;;;;;;;;;;;;;;;;;;5066265;28;19936;-85
2023/02/09 01:25:00;;;;;;;;;;;;;;;;;;5062372;28;19928;-85
2023/02/09 01:27:26;;;;;;;;;;;;;;;;;;5069240;28;20129;-84
2023/02/09 01:29:51;;;;;;;;;;;;;;;;;;5066901;28;20016;-84
2023/02/09 01:32:17;;;;;;;;;;;;;;;;;;5056852;28;20380;-85
2023/02/09 01:34:43;;;;;;;;;;;;;;;;;;5067235;28;20311;-85
2023/02/09 01:37:09;;;;;;;;;;;;;;;;;;5048516;28;20458;-85
2023/02/09 01:39:35;;;;;;;;;;;;;;;;;;5062528;28;20212;-85
2023/02/09 01:42:02;;;;;;;;;;;;;;;;;;5067977;28;20441;-85
2023/02/09 01:44:28;;;;;;;;;;;;;;;;;;5068500;28;19951;-85
2023/02/09 01:46:54;;;;;;;;;;;;;;;;;;5063049;28;19975;-85
2023/02/09 01:49:20;;;;;;;;;;;;;;;;;;5065087;28;19963;-85
2023/02/09 01:51:46;;;;;;;;;;;;;;;;;;5070237;28;19924;-85
2023/02/09 01:54:12;;;;;;;;;;;;;;;;;;5063263;28;19920;-85
2023/02/09 01:56:38;;;;;;;;;;;;;;;;;;5063222;28;19920;-84
2023/02/09 01:59:04;;;;;;;;;;;;;;;;;;5064782;28;20279;-85
2023/02/09 02:01:30;;;;;;;;;;;;;;;;;;5082876;28;20531;-85
2023/02/09 02:03:56;;;;;;;;;;;;;;;;;;5047705;28;20343;-85
2023/02/09 02:06:22;;;;;;;;;;;;;;;;;;5061833;28;20360;-85
2023/02/09 02:08:48;;;;;;;;;;;;;;;;;;5047443;28;19929;-85
2023/02/09 02:11:14;;;;;;;;;;;;;;;;;;5036440;28;20028;-84
2023/02/09 02:13:40;;;;;;;;;;;;;;;;;;5062401;28;19929;-84
2023/02/09 02:16:05;;;;;;;;;;;;;;;;;;5057422;28;19921;-85
2023/02/09 02:18:31;;;;;;;;;;;;;;;;;;5049614;28;19928;-85
2023/02/09 02:20:57;;;;;;;;;;;;;;;;;;5064017;28;20329;-85
2023/02/09 02:23:23;;;;;;;;;;;;;;;;;;5066884;28;19942;-85
2023/02/09 02:25:49;;;;;;;;;;;;;;;;;;5056711;28;19940;-84
2023/02/09 02:28:15;;;;;;;;;;;;;;;;;;5063518;28;20307;-85
2023/02/09 02:30:41;;;;;;;;;;;;;;;;;;5037923;28;20291;-86
2023/02/09 02:33:07;;;;;;;;;;;;;;;;;;5079408;28;20407;-84
2023/02/09 02:35:33;;;;;;;;;;;;;;;;;;5051719;28;19937;-85
2023/02/09 02:37:59;;;;;;;;;;;;;;;;;;5066802;28;20122;-85
2023/02/09 02:40:25;;;;;;;;;;;;;;;;;;5060448;28;20421;-85
2023/02/09 02:42:51;;;;;;;;;;;;;;;;;;5048562;28;19928;-85
2023/02/09 02:45:17;;;;;;;;;;;;;;;;;;5066343;28;20383;-86
2023/02/09 02:47:43;;;;;;;;;;;;;;;;;;5058779;28;19951;-85
2023/02/09 02:50:09;;;;;;;;;;;;;;;;;;5064097;28;19932;-86
2023/02/09 02:52:35;;;;;;;;;;;;;;;;;;5067310;28;20024;-84
2023/02/09 02:55:01;;;;;;;;;;;;;;;;;;5066694;28;20432;-83
2023/02/09 02:57:27;;;;;;;;;;;;;;;;;;5069432;28;19928;-84
2023/02/09 02:59:53;;;;;;;;;;;;;;;;;;5071081;28;20175;-85
2023/02/09 03:02:19;;;;;;;;;;;;;;;;;;5068812;28;19935;-84
2023/02/09 03:04:45;;;;;;;;;;;;;;;;;;5069650;28;19921;-84
2023/02/09 03:07:11;;;;;;;;;;;;;;;;;;5083403;28;20280;-86
2023/02/09 03:09:37;;;;;;;;;;;;;;;;;;5065007;28;19931;-85
2023/02/09 03:12:03;;;;;;;;;;;;;;;;;;5067273;28;19928;-85
2023/02/09 03:14:29;;;;;;;;;;;;;;;;;;5051266;28;22949;-85
2023/02/09 03:16:55;;;;;;;;;;;;;;;;;;5064753;28;19928;-85
2023/02/09 03:19:21;;;;;;;;;;;;;;;;;;5069164;28;19950;-85
2023/02/09 03:21:47;;;;;;;;;;;;;;;;;;5071336;28;19964;-85
2023/02/09 03:24:16;;;;;;;;;;;;;;;;;;5043647;28;19928;-85
2023/02/09 03:26:42;;;;;;;;;;;;;;;;;;5068440;28;19927;-86
2023/02/09 03:29:10;;;;;;;;;;;;;;;;;;5065215;28;19924;-86
2023/02/09 03:31:36;;;;;;;;;;;;;;;;;;5068391;28;20310;-86
2023/02/09 03:34:02;;;;;;;;;;;;;;;;;;5073062;28;19925;-86
2023/02/09 03:36:28;;;;;;;;;;;;;;;;;;5043834;28;19984;-86
2023/02/09 03:38:54;;;;;;;;;;;;;;;;;;5072161;28;19993;-86
2023/02/09 03:41:20;;;;;;;;;;;;;;;;;;5057711;28;19983;-85
2023/02/09 03:46:32;;;;;;;;;;;;;;;;;;5091228;28;20018;-86
2023/02/09 03:48:58;;;;;;;;;;;;;;;;;;5073591;28;19928;-86
2023/02/09 03:51:24;;;;;;;;;;;;;;;;;;5041504;28;20337;-85
2023/02/09 03:53:50;;;;;;;;;;;;;;;;;;5064793;28;20350;-85
2023/02/09 03:56:16;;;;;;;;;;;;;;;;;;5040125;28;20296;-85
2023/02/09 03:58:45;;;;;;;;;;;;;;;;;;5077301;28;20342;-85
2023/02/09 04:01:11;;;;;;;;;;;;;;;;;;5072262;28;20494;-87
2023/02/09 04:03:38;;;;;;;;;;;;;;;;;;5081530;28;19935;-85
2023/02/09 04:06:04;;;;;;;;;;;;;;;;;;5095999;28;19924;-85
2023/02/09 04:08:33;;;;;;;;;;;;;;;;;;5077038;28;20184;-86
2023/02/09 04:10:59;;;;;;;;;;;;;;;;;;5067866;28;20371;-85
2023/02/09 04:13:25;;;;;;;;;;;;;;;;;;5072212;28;19925;-85
2023/02/09 04:15:51;;;;;;;;;;;;;;;;;;5070030;28;19931;-86
2023/02/09 04:18:17;;;;;;;;;;;;;;;;;;5040363;28;19921;-85
2023/02/09 04:20:43;;;;;;;;;;;;;;;;;;5078884;28;19931;-85
2023/02/09 04:23:12;;;;;;;;;;;;;;;;;;5072230;28;20117;-85
2023/02/09 04:25:40;;;;;;;;;;;;;;;;;;5064341;28;20026;-85
2023/02/09 04:28:09;;;;;;;;;;;;;;;;;;5064154;28;19920;-85
2023/02/09 04:30:35;;;;;;;;;;;;;;;;;;5064342;28;19925;-86
2023/02/09 04:33:01;;;;;;;;;;;;;;;;;;5066420;28;19921;-85
2023/02/09 04:35:27;;;;;;;;;;;;;;;;;;5071245;28;19979;-85
2023/02/09 04:37:53;;;;;;;;;;;;;;;;;;5083232;28;20336;-85
2023/02/09 04:40:19;;;;;;;;;;;;;;;;;;5085920;28;19925;-86
2023/02/09 04:42:45;;;;;;;;;;;;;;;;;;5053785;28;20027;-85
2023/02/09 04:45:11;;;;;;;;;;;;;;;;;;5067331;28;20049;-85
2023/02/09 04:47:37;;;;;;;;;;;;;;;;;;5068481;28;20184;-85
2023/02/09 04:50:03;;;;;;;;;;;;;;;;;;5067015;28;19925;-86
2023/02/09 04:52:29;;;;;;;;;;;;;;;;;;5045755;28;19920;-85
2023/02/09 04:54:54;;;;;;;;;;;;;;;;;;5062202;28;20067;-85
2023/02/09 05:00:05;;;;;;;;;;;;;;;;;;5045425;28;19924;-85
2023/02/09 05:02:31;;;;;;;;;;;;;;;;;;5061268;28;19983;-85
2023/02/09 05:04:57;;;;;;;;;;;;;;;;;;5054947;22;19928;-85
2023/02/09 05:07:25;;;;;;;;;;;;;;;;;;5013329;28;19955;-84
2023/02/09 05:09:51;;;;;;;;;;;;;;;;;;5026532;28;19967;-86
2023/02/09 05:12:17;;;;;;;;;;;;;;;;;;5012855;28;19921;-85
2023/02/09 05:14:43;;;;;;;;;;;;;;;;;;5003600;28;19951;-85
2023/02/09 05:17:09;;;;;;;;;;;;;;;;;;5005084;28;19928;-86
2023/02/09 05:19:35;;;;;;;;;;;;;;;;;;5007453;28;19990;-85
2023/02/09 05:22:01;;;;;;;;;;;;;;;;;;5004950;28;20024;-86
2023/02/09 05:24:27;;;;;;;;;;;;;;;;;;4996336;28;20635;-85
2023/02/09 05:26:53;;;;;;;;;;;;;;;;;;5006532;28;19935;-85
2023/02/09 05:29:19;;;;;;;;;;;;;;;;;;4996775;28;19927;-86
2023/02/09 05:31:45;;;;;;;;;;;;;;;;;;5017683;28;19929;-86
2023/02/09 05:34:11;;;;;;;;;;;;;;;;;;5001804;28;19928;-84
2023/02/09 05:36:37;;;;;;;;;;;;;;;;;;5005482;28;19932;-86
2023/02/09 05:39:03;;;;;;;;;;;;;;;;;;4996790;28;20279;-86
2023/02/09 05:44:14;;;;;;;;;;;;;;;;;;5005599;28;19928;-85
2023/02/09 05:46:40;;;;;;;;;;;;;;;;;;5004332;28;19925;-85
2023/02/09 05:49:06;;;;;;;;;;;;;;;;;;5004655;28;20246;-86
2023/02/09 05:51:32;;;;;;;;;;;;;;;;;;4999541;28;21206;-86
2023/02/09 05:53:58;;;;;;;;;;;;;;;;;;5010032;28;19921;-86
2023/02/09 05:56:24;;;;;;;;;;;;;;;;;;5022456;28;20031;-85
2023/02/09 05:58:50;;;;;;;;;;;;;;;;;;5009935;28;19928;-84
2023/02/09 06:01:16;;;;;;;;;;;;;;;;;;5002685;28;19940;-85
2023/02/09 06:03:42;;;;;;;;;;;;;;;;;;5004714;28;19932;-85
2023/02/09 06:06:08;;;;;;;;;;;;;;;;;;5007510;28;19928;-85
2023/02/09 06:08:33;;;;;;;;;;;;;;;;;;5004600;28;19959;-85
2023/02/09 06:11:01;;;;;;;;;;;;;;;;;;5012388;28;19924;-85
2023/02/09 06:13:27;;;;;;;;;;;;;;;;;;5017740;28;20011;-85
2023/02/09 06:15:53;;;;;;;;;;;;;;;;;;5021059;28;19959;-85
2023/02/09 06:18:19;;;;;;;;;;;;;;;;;;5023082;28;20414;-87
2023/02/09 06:20:45;;;;;;;;;;;;;;;;;;5012882;28;19924;-86
2023/02/09 06:23:11;;;;;;;;;;;;;;;;;;5020687;28;20391;-85
2023/02/09 06:25:37;;;;;;;;;;;;;;;;;;5014139;28;20012;-84
2023/02/09 06:28:03;;;;;;;;;;;;;;;;;;5007358;28;20018;-86
2023/02/09 06:30:29;;;;;;;;;;;;;;;;;;5006411;28;20570;-85
2023/02/09 06:32:55;;;;;;;;;;;;;;;;;;5001220;28;19920;-85
2023/02/09 06:35:21;;;;;;;;;;;;;;;;;;5010359;28;19929;-85
2023/02/09 06:37:47;;;;;;;;;;;;;;;;;;4993742;28;19936;-86
2023/02/09 06:40:13;;;;;;;;;;;;;;;;;;5007901;28;20398;-86
2023/02/09 06:42:42;;;;;;;;;;;;;;;;;;5000903;28;20409;-86
2023/02/09 06:45:10;;;;;;;;;;;;;;;;;;5013860;28;20426;-85
2023/02/09 06:47:36;;;;;;;;;;;;;;;;;;5002835;28;19920;-86
2023/02/09 06:50:01;;;;;;;;;;;;;;;;;;5006988;28;19925;-86
2023/02/09 06:52:27;;;;;;;;;;;;;;;;;;5004822;28;20485;-85
2023/02/09 06:54:53;;;;;;;;;;;;;;;;;;5012213;28;20019;-86
2023/02/09 06:57:19;;;;;;;;;;;;;;;;;;5007297;28;19932;-85
2023/02/09 06:59:45;;;;;;;;;;;;;;;;;;5017334;28;20295;-86
2023/02/09 07:02:11;;;;;;;;;;;;;;;;;;5007532;28;20183;-85
2023/02/09 07:04:37;;;;;;;;;;;;;;;;;;5011619;28;20146;-85
2023/02/09 07:07:03;;;;;;;;;;;;;;;;;;5020320;28;20393;-85
2023/02/09 07:09:29;;;;;;;;;;;;;;;;;;5010904;28;20383;-85
2023/02/09 07:11:55;;;;;;;;;;;;;;;;;;5016698;28;19921;-85
2023/02/09 07:14:21;;;;;;;;;;;;;;;;;;5029956;28;20972;-85
2023/02/09 07:16:47;;;;;;;;;;;;;;;;;;5021094;28;20276;-86
2023/02/09 07:19:13;;;;;;;;;;;;;;;;;;5033709;28;19928;-85
2023/02/09 07:21:39;;;;;;;;;;;;;;;;;;5032575;28;20535;-85
2023/02/09 07:24:05;;;;;;;;;;;;;;;;;;5027650;28;20081;-85
2023/02/09 07:26:31;;;;;;;;;;;;;;;;;;5027381;28;19921;-85
2023/02/09 07:28:57;;;;;;;;;;;;;;;;;;5026969;28;19928;-85
2023/02/09 07:31:23;;;;;;;;;;;;;;;;;;5023864;28;19973;-85
2023/02/09 07:33:49;;;;;;;;;;;;;;;;;;5036951;28;20050;-85
2023/02/09 07:36:15;;;;;;;;;;;;;;;;;;5042263;28;20312;-85
2023/02/09 07:38:40;;;;;;;;;;;;;;;;;;5008442;28;20333;-86
2023/02/09 07:41:06;;;;;;;;;;;;;;;;;;5021487;28;19920;-86
2023/02/09 07:43:32;;;;;;;;;;;;;;;;;;5019003;28;19941;-86
2023/02/09 07:45:59;;;;;;;;;;;;;;;;;;5022685;28;19932;-86
2023/02/09 07:48:25;;;;;;;;;;;;;;;;;;5026519;28;20380;-86
2023/02/09 07:50:52;;;;;;;;;;;;;;;;;;5019656;28;20459;-86
2023/02/09 07:53:17;;;;;;;;;;;;;;;;;;5018162;28;20126;-86
2023/02/09 07:55:44;;;;;;;;;;;;;;;;;;5024879;28;19988;-86
2023/02/09 07:58:10;;;;;;;;;;;;;;;;;;5022666;28;19979;-87
2023/02/09 08:00:36;;;;;;;;;;;;;;;;;;5037597;28;19968;-87
2023/02/09 08:03:02;;;;;;;;;;;;;;;;;;5022471;28;19968;-87
2023/02/09 08:05:28;;;;;;;;;;;;;;;;;;5019911;28;19934;-88
2023/02/09 08:07:54;;;;;;;;;;;;;;;;;;5019109;28;20362;-86
2023/02/09 08:10:20;;;;;;;;;;;;;;;;;;5013358;28;19921;-88
2023/02/09 08:12:59;;;;;;;;;;;;;;;;;;5015634;28;19921;-87
2023/02/09 08:15:25;;;;;;;;;;;;;;;;;;5020033;28;19929;-86
2023/02/09 08:17:50;;;;;;;;;;;;;;;;;;5025563;28;19921;-87
2023/02/09 08:20:16;;;;;;;;;;;;;;;;;;5014881;28;20067;-87
2023/02/09 08:22:42;;;;;;;;;;;;;;;;;;5020338;28;19924;-87
2023/02/09 08:25:08;;;;;;;;;;;;;;;;;;5029502;28;20035;-85
2023/02/09 08:27:34;;;;;;;;;;;;;;;;;;5026862;28;19931;-86
2023/02/09 08:30:00;;;;;;;;;;;;;;;;;;5030423;28;19920;-87
2023/02/09 08:32:26;;;;;;;;;;;;;;;;;;5023546;28;19921;-86
2023/02/09 08:34:52;;;;;;;;;;;;;;;;;;5020728;28;19929;-88
2023/02/09 08:37:18;;;;;;;;;;;;;;;;;;4999255;28;20491;-87
2023/02/09 08:39:44;;;;;;;;;;;;;;;;;;5004018;28;19928;-87
2023/02/09 08:42:10;;;;;;;;;;;;;;;;;;5011548;28;20513;-87
2023/02/09 08:44:36;;;;;;;;;;;;;;;;;;5004575;28;20349;-86
2023/02/09 08:47:02;;;;;;;;;;;;;;;;;;5011885;28;20276;-86
2023/02/09 08:49:28;;;;;;;;;;;;;;;;;;5013010;28;19928;-86
2023/02/09 08:51:54;;;;;;;;;;;;;;;;;;5010905;28;19943;-87
2023/02/09 08:54:20;;;;;;;;;;;;;;;;;;5021735;28;22173;-87
2023/02/09 08:56:46;;;;;;;;;;;;;;;;;;5011090;28;20010;-86
2023/02/09 08:59:12;;;;;;;;;;;;;;;;;;5012758;28;20318;-86
2023/02/09 09:01:39;;;;;;;;;;;;;;;;;;5025810;28;19928;-87
2023/02/09 09:04:08;;;;;;;;;;;;;;;;;;5012545;28;20276;-87
2023/02/09 09:06:34;;;;;;;;;;;;;;;;;;5018781;28;19928;-87
2023/02/09 09:09:00;;;;;;;;;;;;;;;;;;5015109;28;19929;-87
2023/02/09 09:11:26;;;;;;;;;;;;;;;;;;5014102;28;19920;-86
2023/02/09 09:13:52;;;;;;;;;;;;;;;;;;5012360;28;19965;-86
2023/02/09 09:16:18;;;;;;;;;;;;;;;;;;5011975;28;20711;-86
2023/02/09 09:18:44;;;;;;;;;;;;;;;;;;5019655;28;19958;-87
2023/02/09 09:21:10;;;;;;;;;;;;;;;;;;5021639;28;19924;-88
2023/02/09 09:23:36;;;;;;;;;;;;;;;;;;5007811;28;19928;-86
2023/02/09 09:26:02;;;;;;;;;;;;;;;;;;5020248;28;20490;-86
2023/02/09 09:28:28;;;;;;;;;;;;;;;;;;5008967;28;19966;-87
2023/02/09 09:30:54;;;;;;;;;;;;;;;;;;5024464;28;20422;-86
2023/02/09 09:33:20;;;;;;;;;;;;;;;;;;5027885;28;19932;-87
2023/02/09 09:35:46;;;;;;;;;;;;;;;;;;5009698;28;19935;-87
2023/02/09 09:38:12;;;;;;;;;;;;;;;;;;5028383;28;19921;-86
2023/02/09 09:40:40;;;;;;;;;;;;;;;;;;5017706;28;19936;-86
2023/02/09 09:43:06;;;;;;;;;;;;;;;;;;5006407;28;20323;-87
2023/02/09 09:45:32;;;;;;;;;;;;;;;;;;5016745;28;19943;-88
2023/02/09 09:47:58;;;;;;;;;;;;;;;;;;5019065;28;19921;-86
2023/02/09 09:50:24;;;;;;;;;;;;;;;;;;5013978;28;19921;-86
2023/02/09 09:52:50;;;;;;;;;;;;;;;;;;5009553;28;19943;-87
2023/02/09 09:55:16;;;;;;;;;;;;;;;;;;5022220;28;20018;-87
2023/02/09 09:57:42;;;;;;;;;;;;;;;;;;5043585;28;19940;-86
2023/02/09 10:00:09;;;;;;;;;;;;;;;;;;5023331;28;20399;-86
2023/02/09 10:02:35;;;;;;;;;;;;;;;;;;5017363;28;19935;-86
2023/02/09 10:05:01;;;;;;;;;;;;;;;;;;5009177;28;19932;-86
2023/02/09 10:07:27;;;;;;;;;;;;;;;;;;5016800;28;19925;-86
2023/02/09 10:09:53;;;;;;;;;;;;;;;;;;5011240;28;19932;-86
2023/02/09 10:12:19;;;;;;;;;;;;;;;;;;5013903;28;20501;-86
2023/02/09 10:14:45;;;;;;;;;;;;;;;;;;5014582;28;20383;-87
2023/02/09 10:17:11;;;;;;;;;;;;;;;;;;5014991;28;20614;-87
2023/02/09 10:19:36;;;;;;;;;;;;;;;;;;5016571;28;19928;-87
2023/02/09 10:22:05;;;;;;;;;;;;;;;;;;5008289;28;20384;-87
2023/02/09 10:24:32;;;;;;;;;;;;;;;;;;5011103;28;19928;-85
2023/02/09 10:26:58;;;;;;;;;;;;;;;;;;5014506;28;20413;-85
2023/02/09 10:29:24;;;;;;;;;;;;;;;;;;5015395;28;19943;-85
2023/02/09 10:31:52;;;;;;;;;;;;;;;;;;5004767;28;19928;-85
2023/02/09 10:34:18;;;;;;;;;;;;;;;;;;5020449;28;20437;-85
2023/02/09 10:36:44;;;;;;;;;;;;;;;;;;5020831;28;19928;-85
2023/02/09 10:39:10;;;;;;;;;;;;;;;;;;5018494;28;20376;-85
2023/02/09 10:41:36;;;;;;;;;;;;;;;;;;5037287;28;20303;-85
2023/02/09 10:44:01;;;;;;;;;;;;;;;;;;5034605;28;19934;-85
2023/02/09 10:46:27;;;;;;;;;;;;;;;;;;5034374;28;19943;-85
2023/02/09 10:48:54;;;;;;;;;;;;;;;;;;5017204;28;19920;-87
2023/02/09 10:51:27;;;;;;;;;;;;;;;;;;5012940;28;19956;-85
2023/02/09 10:53:53;;;;;;;;;;;;;;;;;;5009176;28;19920;-85
2023/02/09 10:56:19;;;;;;;;;;;;;;;;;;5033351;28;20290;-85
2023/02/09 10:58:45;;;;;;;;;;;;;;;;;;5017843;28;20403;-85
2023/02/09 11:01:11;;;;;;;;;;;;;;;;;;5021907;28;20007;-85
2023/02/09 11:03:37;;;;;;;;;;;;;;;;;;5017177;28;20379;-86
2023/02/09 11:06:03;;;;;;;;;;;;;;;;;;5024333;28;20414;-85
2023/02/09 11:08:29;;;;;;;;;;;;;;;;;;5021566;28;19920;-85
2023/02/09 11:10:55;;;;;;;;;;;;;;;;;;5008703;28;20358;-85
2023/02/09 11:13:21;;;;;;;;;;;;;;;;;;5031606;28;19928;-85
2023/02/09 11:15:47;;;;;;;;;;;;;;;;;;5022665;28;19920;-85
2023/02/09 11:18:12;;;;;;;;;;;;;;;;;;5010940;28;20181;-83
2023/02/09 11:20:38;;;;;;;;;;;;;;;;;;5020233;28;19924;-83
2023/02/09 11:23:04;;;;;;;;;;;;;;;;;;5030279;28;19932;-83
2023/02/09 11:25:30;;;;;;;;;;;;;;;;;;5018559;28;19920;-83
2023/02/09 11:27:56;;;;;;;;;;;;;;;;;;5015383;28;19935;-84
2023/02/09 11:30:22;;;;;;;;;;;;;;;;;;5036730;28;19928;-84
2023/02/09 11:32:48;;;;;;;;;;;;;;;;;;5016339;28;20117;-85
2023/02/09 11:35:14;;;;;;;;;;;;;;;;;;5024938;28;19921;-84
2023/02/09 11:37:40;;;;;;;;;;;;;;;;;;5010829;28;19936;-85
2023/02/09 11:40:06;;;;;;;;;;;;;;;;;;5018400;28;19927;-84
2023/02/09 11:42:44;;;;;;;;;;;;;;;;;;5019453;28;19932;-84
2023/02/09 11:45:10;;;;;;;;;;;;;;;;;;5025002;28;19928;-84
2023/02/09 11:47:36;;;;;;;;;;;;;;;;;;5015285;28;19920;-85
2023/02/09 11:50:02;;;;;;;;;;;;;;;;;;5014334;28;19942;-84
2023/02/09 11:52:28;;;;;;;;;;;;;;;;;;5018273;28;20329;-84
2023/02/09 11:54:54;;;;;;;;;;;;;;;;;;5000951;28;20312;-84
2023/02/09 11:57:20;;;;;;;;;;;;;;;;;;5021031;28;19921;-85
2023/02/09 11:59:46;;;;;;;;;;;;;;;;;;5013979;28;19921;-84
2023/02/09 12:02:12;;;;;;;;;;;;;;;;;;5015056;28;19921;-84
2023/02/09 12:04:38;;;;;;;;;;;;;;;;;;5030081;28;19959;-85
2023/02/09 12:07:04;;;;;;;;;;;;;;;;;;5028532;28;20019;-84
2023/02/09 12:09:30;;;;;;;;;;;;;;;;;;5020925;28;20015;-84
2023/02/09 12:11:56;;;;;;;;;;;;;;;;;;5017888;28;19938;-84
2023/02/09 12:14:22;;;;;;;;;;;;;;;;;;5027864;28;20070;-85
2023/02/09 12:16:48;;;;;;;;;;;;;;;;;;5018884;28;20371;-84
2023/02/09 12:19:14;;;;;;;;;;;;;;;;;;5021841;28;20299;-84
2023/02/09 12:21:40;;;;;;;;;;;;;;;;;;5007004;28;20387;-84
2023/02/09 12:26:58;;;;;;;;;;;;;;;;;;5030304;28;19920;-84
2023/02/09 12:29:24;;;;;;;;;;;;;;;;;;5020047;28;19939;-84
2023/02/09 12:31:53;;;;;;;;;;;;;;;;;;5027546;28;19935;-83
2023/02/09 12:34:19;;;;;;;;;;;;;;;;;;5030216;28;20075;-84
2023/02/09 12:36:45;;;;;;;;;;;;;;;;;;5021400;28;19931;-84
2023/02/09 12:39:11;;;;;;;;;;;;;;;;;;5013460;28;19932;-84
2023/02/09 12:41:37;;;;;;;;;;;;;;;;;;5016384;28;20007;-84
2023/02/09 12:44:03;;;;;;;;;;;;;;;;;;5029470;28;20016;-84
2023/02/09 12:46:29;;;;;;;;;;;;;;;;;;5014503;28;19921;-85
2023/02/09 12:48:55;;;;;;;;;;;;;;;;;;5031149;28;19920;-84
2023/02/09 12:51:21;;;;;;;;;;;;;;;;;;5003092;28;19959;-84
2023/02/09 12:53:47;;;;;;;;;;;;;;;;;;5016177;28;19924;-84
2023/02/09 12:56:13;;;;;;;;;;;;;;;;;;5015494;28;20274;-84
2023/02/09 12:58:39;;;;;;;;;;;;;;;;;;5006566;28;19924;-84
2023/02/09 13:01:05;;;;;;;;;;;;;;;;;;5019172;28;19931;-84
2023/02/09 13:03:31;;;;;;;;;;;;;;;;;;5028855;28;19993;-84
2023/02/09 13:05:57;;;;;;;;;;;;;;;;;;5025149;28;19920;-84
2023/02/09 13:08:23;;;;;;;;;;;;;;;;;;5033874;28;19931;-83
2023/02/09 13:10:49;;;;;;;;;;;;;;;;;;5022016;28;19921;-84
2023/02/09 13:13:15;;;;;;;;;;;;;;;;;;5020717;28;19934;-84
2023/02/09 13:15:41;;;;;;;;;;;;;;;;;;5021339;28;20003;-84
2023/02/09 13:18:07;;;;;;;;;;;;;;;;;;5018607;28;19921;-84
2023/02/09 13:20:32;;;;;;;;;;;;;;;;;;5008141;28;19929;-84
2023/02/09 13:22:58;;;;;;;;;;;;;;;;;;5030313;28;19933;-84
2023/02/09 13:25:25;;;;;;;;;;;;;;;;;;5021989;28;20011;-83
2023/02/09 13:27:51;;;;;;;;;;;;;;;;;;5020038;28;20019;-83
2023/02/09 13:30:17;;;;;;;;;;;;;;;;;;5028676;28;20413;-84
2023/02/09 13:32:43;;;;;;;;;;;;;;;;;;5022021;28;20391;-84
2023/02/09 13:35:09;;;;;;;;;;;;;;;;;;5010519;28;19935;-84
2023/02/09 13:37:35;;;;;;;;;;;;;;;;;;5022113;28;20006;-83
2023/02/09 13:40:01;;;;;;;;;;;;;;;;;;5014530;28;20035;-84
2023/02/09 13:42:27;;;;;;;;;;;;;;;;;;5028456;28;19940;-84
2023/02/09 13:44:53;;;;;;;;;;;;;;;;;;5027979;28;19966;-84
2023/02/09 13:47:19;;;;;;;;;;;;;;;;;;5047750;28;19976;-83
2023/02/09 13:49:45;;;;;;;;;;;;;;;;;;5015403;28;20361;-84
2023/02/09 13:52:11;;;;;;;;;;;;;;;;;;5019626;28;19921;-85
2023/02/09 13:54:37;;;;;;;;;;;;;;;;;;5014736;28;19928;-84
2023/02/09 13:57:03;;;;;;;;;;;;;;;;;;5038846;28;19920;-83
2023/02/09 13:59:29;;;;;;;;;;;;;;;;;;5025966;28;19943;-84
2023/02/09 14:01:54;;;;;;;;;;;;;;;;;;5025192;28;19932;-84
2023/02/09 14:04:20;;;;;;;;;;;;;;;;;;5035962;28;19935;-85
2023/02/09 14:06:46;;;;;;;;;;;;;;;;;;5024822;28;20007;-84
2023/02/09 14:09:12;;;;;;;;;;;;;;;;;;5021791;28;20533;-84
2023/02/09 14:11:38;;;;;;;;;;;;;;;;;;5058008;28;20386;-84
2023/02/09 14:14:04;;;;;;;;;;;;;;;;;;5024423;28;19944;-84
2023/02/09 14:16:32;;;;;;;;;;;;;;;;;;5027079;28;19920;-84
2023/02/09 14:18:57;;;;;;;;;;;;;;;;;;5044730;28;20985;-84
2023/02/09 14:21:23;;;;;;;;;;;;;;;;;;5013654;28;19928;-85
2023/02/09 14:23:49;;;;;;;;;;;;;;;;;;5020467;28;19924;-83
2023/02/09 14:26:17;;;;;;;;;;;;;;;;;;5024974;28;20198;-84
2023/02/09 14:28:43;;;;;;;;;;;;;;;;;;5031295;28;19921;-84
2023/02/09 14:31:09;;;;;;;;;;;;;;;;;;5027157;28;20194;-84
2023/02/09 14:33:35;;;;;;;;;;;;;;;;;;5010179;28;20134;-86
2023/02/09 14:36:01;;;;;;;;;;;;;;;;;;5017655;28;19924;-84
2023/02/09 14:38:27;;;;;;;;;;;;;;;;;;5033271;28;19928;-84
2023/02/09 14:40:53;;;;;;;;;;;;;;;;;;5029475;28;19943;-84
2023/02/09 14:43:20;;;;;;;;;;;;;;;;;;5021635;28;19924;-82
2023/02/09 14:45:46;;;;;;;;;;;;;;;;;;5027987;28;20314;-84
2023/02/09 14:48:12;;;;;;;;;;;;;;;;;;5034647;28;19935;-84
2023/02/09 14:50:38;;;;;;;;;;;;;;;;;;5021077;28;19927;-84
2023/02/09 14:53:04;;;;;;;;;;;;;;;;;;5039615;28;19924;-83
2023/02/09 14:55:31;;;;;;;;;;;;;;;;;;5041381;28;19960;-83
2023/02/09 14:57:57;;;;;;;;;;;;;;;;;;5029160;28;20283;-83
2023/02/09 15:00:23;;;;;;;;;;;;;;;;;;5028637;28;19920;-84
2023/02/09 15:02:49;;;;;;;;;;;;;;;;;;5023288;28;19936;-83
2023/02/09 15:05:15;;;;;;;;;;;;;;;;;;5028986;28;20617;-83
2023/02/09 15:07:41;;;;;;;;;;;;;;;;;;5036704;28;21794;-83
2023/02/09 15:10:07;;;;;;;;;;;;;;;;;;5022144;28;19999;-83
2023/02/09 15:12:33;;;;;;;;;;;;;;;;;;5036425;28;20359;-84
2023/02/09 15:14:59;;;;;;;;;;;;;;;;;;5019501;28;20411;-83
2023/02/09 15:17:26;;;;;;;;;;;;;;;;;;5041819;28;19967;-83
2023/02/09 15:19:52;;;;;;;;;;;;;;;;;;5026886;28;19973;-84
2023/02/09 15:22:18;;;;;;;;;;;;;;;;;;5039401;28;19937;-84
2023/02/09 15:24:44;;;;;;;;;;;;;;;;;;5043069;28;20007;-83
2023/02/09 15:27:10;;;;;;;;;;;;;;;;;;5025625;28;19931;-83
2023/02/09 15:29:36;;;;;;;;;;;;;;;;;;5018885;28;19924;-84
2023/02/09 15:32:02;;;;;;;;;;;;;;;;;;5057035;28;19993;-84
2023/02/09 15:34:28;;;;;;;;;;;;;;;;;;5030768;28;19929;-83
2023/02/09 15:36:54;;;;;;;;;;;;;;;;;;5026351;28;19955;-83
2023/02/09 15:39:20;;;;;;;;;;;;;;;;;;5026849;28;20205;-82
2023/02/09 15:50:00;;;;;;;;;;;;;;;;;;5038484;28;19932;-84
2023/02/09 15:52:26;;;;;;;;;;;;;;;;;;5008431;28;20371;-84
2023/02/09 15:54:52;;;;;;;;;;;;;;;;;;5019202;28;20026;-84
2023/02/09 15:57:18;;;;;;;;;;;;;;;;;;5017009;28;20049;-84
2023/02/09 15:59:45;;;;;;;;;;;;;;;;;;5008416;28;20009;-84
2023/02/09 16:02:11;;;;;;;;;;;;;;;;;;5012203;28;19921;-83
2023/02/09 16:04:37;;;;;;;;;;;;;;;;;;5011982;28;19928;-83
2023/02/09 16:07:03;;;;;;;;;;;;;;;;;;5008773;28;19973;-83
2023/02/09 16:09:29;;;;;;;;;;;;;;;;;;5005596;28;19932;-82
2023/02/09 16:11:55;;;;;;;;;;;;;;;;;;5004823;28;20520;-83
2023/02/09 16:14:21;;;;;;;;;;;;;;;;;;5015672;28;19928;-84
2023/02/09 16:16:47;;;;;;;;;;;;;;;;;;5021875;28;19920;-84
2023/02/09 16:19:13;;;;;;;;;;;;;;;;;;5009986;28;20570;-84
2023/02/09 16:21:39;;;;;;;;;;;;;;;;;;5014511;28;20431;-84
2023/02/09 16:24:05;;;;;;;;;;;;;;;;;;5034089;28;20369;-84
2023/02/09 16:26:31;;;;;;;;;;;;;;;;;;5023246;28;20441;-84
2023/02/09 16:28:57;;;;;;;;;;;;;;;;;;5015188;28;19966;-83
2023/02/09 16:31:24;;;;;;;;;;;;;;;;;;5021676;28;20534;-84
2023/02/09 16:33:50;;;;;;;;;;;;;;;;;;5022974;28;20087;-84
2023/02/09 16:36:16;;;;;;;;;;;;;;;;;;5008188;28;19931;-84
2023/02/09 16:38:42;;;;;;;;;;;;;;;;;;5003751;28;19920;-84
2023/02/09 16:41:45;;;;;;;;;;;;;;;;;;4999672;28;19974;-83
2023/02/09 16:43:53;;;;;;;;;;;;;;;;;;5030533;28;19929;-84
2023/02/09 16:46:19;;;;;;;;;;;;;;;;;;5013312;28;19935;-85
2023/02/09 16:48:45;;;;;;;;;;;;;;;;;;5015373;28;20065;-84
2023/02/09 16:51:11;;;;;;;;;;;;;;;;;;5015464;28;20030;-83
2023/02/09 16:53:37;;;;;;;;;;;;;;;;;;5023184;28;19928;-83
2023/02/09 16:56:04;;;;;;;;;;;;;;;;;;5017149;28;19921;-82
2023/02/09 16:58:30;;;;;;;;;;;;;;;;;;5014391;28;19920;-83
2023/02/09 17:00:56;;;;;;;;;;;;;;;;;;5035153;28;19927;-83